Time;durP1;ratioP1;P1;durP2;ratioP2;P2;SDS_P1;SDS_P2;PMS_P1;PMS_P2;Temp;Humidity;BMP_temperature;BMP_pressure;BME280_temperature;BME280_humidity;BME280_pressure;Samples;Min_cycle;Max_cycle;Signal;HPM_P1;HPM_P2
2023/06/06 00:00:09;;;;;;;8.48;3.17;;;;;;;13.54;65.00;99482.75;5102934;28;20095;-64
2023/06/06 00:02:42;;;;;;;7.07;3.00;;;;;;;13.63;63.13;99476.91;5097774;28;20109;-63
2023/06/06 00:05:13;;;;;;;5.35;2.97;;;;;;;13.51;66.29;99477.91;5100240;28;20032;-64
2023/06/06 00:07:42;;;;;;;5.25;3.00;;;;;;;13.51;66.37;99474.41;5099633;28;20040;-64
2023/06/06 00:10:11;;;;;;;5.47;3.07;;;;;;;13.41;69.58;99475.09;5102188;28;20130;-64
2023/06/06 00:12:41;;;;;;;7.05;2.78;;;;;;;13.51;71.36;99471.69;5100711;28;20298;-64
2023/06/06 00:15:09;;;;;;;11.38;3.40;;;;;;;13.19;67.96;99477.81;5102188;28;20094;-63
2023/06/06 00:17:38;;;;;;;4.90;2.90;;;;;;;13.17;66.93;99472.69;5103001;28;20056;-63
2023/06/06 00:20:09;;;;;;;7.15;3.20;;;;;;;13.33;68.38;99478.28;5098562;28;20058;-63
2023/06/06 00:22:38;;;;;;;6.03;3.20;;;;;;;13.37;65.42;99469.41;5100953;28;20040;-63
2023/06/06 00:25:07;;;;;;;6.30;3.65;;;;;;;13.43;68.43;99478.38;5102414;28;20093;-63
2023/06/06 00:27:34;;;;;;;5.63;3.70;;;;;;;13.39;67.05;99463.78;5093487;28;20324;-65
2023/06/06 00:30:02;;;;;;;6.15;3.65;;;;;;;13.41;69.43;99471.59;5098050;28;20476;-63
2023/06/06 00:32:29;;;;;;;8.43;3.90;;;;;;;13.09;68.26;99473.13;5105339;28;20499;-63
2023/06/06 00:34:57;;;;;;;5.78;3.38;;;;;;;13.06;67.43;99470.97;5102851;28;20074;-63
2023/06/06 00:37:25;;;;;;;5.40;3.42;;;;;;;12.88;69.45;99473.97;5105070;28;20054;-63
2023/06/06 00:39:54;;;;;;;8.40;3.10;;;;;;;12.82;69.92;99464.22;5099822;28;20078;-63
2023/06/06 00:42:21;;;;;;;6.50;3.13;;;;;;;12.87;68.13;99475.03;5096228;28;20066;-63
2023/06/06 00:44:49;;;;;;;7.43;3.50;;;;;;;13.12;66.06;99469.13;5097611;28;20044;-63
2023/06/06 00:47:16;;;;;;;5.90;3.30;;;;;;;13.00;67.61;99477.34;5097662;28;20556;-63
2023/06/06 00:49:43;;;;;;;9.75;3.20;;;;;;;13.02;69.25;99475.22;5099214;28;20131;-63
2023/06/06 00:52:11;;;;;;;4.80;3.10;;;;;;;13.00;67.86;99471.94;5101425;28;20093;-63
2023/06/06 00:54:39;;;;;;;8.82;3.47;;;;;;;13.03;67.07;99476.00;5098716;28;20196;-63
2023/06/06 00:57:08;;;;;;;9.13;3.30;;;;;;;13.00;67.99;99476.53;5104519;28;20051;-63
2023/06/06 00:59:35;;;;;;;8.60;3.20;;;;;;;12.90;67.66;99477.22;5096946;28;20040;-63
2023/06/06 01:02:04;;;;;;;5.63;3.13;;;;;;;12.97;67.20;99477.84;5102222;28;20500;-63
2023/06/06 01:04:31;;;;;;;6.35;3.33;;;;;;;13.06;65.80;99476.34;5091556;28;20040;-63
2023/06/06 01:06:58;;;;;;;5.57;3.30;;;;;;;13.09;66.30;99486.59;5100085;28;20035;-63
2023/06/06 01:09:26;;;;;;;6.50;3.00;;;;;;;13.05;66.07;99485.47;5099144;28;20130;-63
2023/06/06 01:11:58;;;;;;;8.55;3.33;;;;;;;13.10;65.69;99487.41;5100765;28;20047;-63
2023/06/06 01:14:30;;;;;;;8.45;3.33;;;;;;;12.88;68.69;99490.09;5093812;28;20795;-63
2023/06/06 01:16:57;;;;;;;4.68;2.92;;;;;;;12.70;71.13;99494.75;5099926;28;20071;-63
2023/06/06 01:19:29;;;;;;;7.30;3.28;;;;;;;12.68;71.60;99491.50;5098196;28;20044;-63
2023/06/06 01:21:58;;;;;;;6.85;3.20;;;;;;;12.53;72.13;99494.00;5097278;27;20084;-63
2023/06/06 01:24:27;;;;;;;5.87;3.10;;;;;;;12.50;73.04;99499.84;5101587;28;20048;-63
2023/06/06 01:26:54;;;;;;;5.18;3.22;;;;;;;12.65;71.21;99486.59;5101120;28;20105;-63
2023/06/06 01:29:22;;;;;;;7.32;3.28;;;;;;;12.59;71.21;99487.63;5094961;28;20055;-63
2023/06/06 01:31:53;;;;;;;7.82;3.45;;;;;;;12.45;70.54;99489.03;5098588;28;20047;-63
2023/06/06 01:34:22;;;;;;;6.93;3.47;;;;;;;12.45;70.30;99491.72;5098275;28;20440;-63
2023/06/06 01:36:51;;;;;;;6.70;3.20;;;;;;;12.51;70.62;99485.38;5101515;28;20071;-63
2023/06/06 01:39:20;;;;;;;8.68;3.22;;;;;;;12.45;72.04;99491.72;5098543;28;20049;-63
2023/06/06 01:41:47;;;;;;;11.48;3.60;;;;;;;12.50;71.87;99489.09;5098774;28;20051;-63
2023/06/06 01:44:16;;;;;;;6.70;3.42;;;;;;;12.42;70.38;99497.59;5103602;28;20044;-63
2023/06/06 01:46:43;;;;;;;5.13;3.30;;;;;;;12.44;71.19;99493.59;5095544;28;20090;-63
2023/06/06 01:49:12;;;;;;;6.00;3.10;;;;;;;12.40;70.59;99495.16;5097067;28;20139;-63
2023/06/06 01:51:39;;;;;;;6.45;3.30;;;;;;;12.42;73.18;99501.09;5102695;28;20047;-63
2023/06/06 01:54:07;;;;;;;5.85;3.30;;;;;;;12.25;72.85;99506.50;5099721;28;20138;-63
2023/06/06 01:56:36;;;;;;;7.65;3.35;;;;;;;12.15;72.76;99498.28;5097206;28;20130;-63
2023/06/06 01:59:03;;;;;;;6.40;3.05;;;;;;;12.13;73.36;99496.91;5105384;28;20040;-63
2023/06/06 02:01:31;;;;;;;7.25;3.40;;;;;;;12.38;70.50;99502.66;5099984;28;20070;-63
2023/06/06 02:03:58;;;;;;;6.90;3.40;;;;;;;12.35;71.61;99502.34;5099787;28;20089;-64
2023/06/06 02:06:25;;;;;;;4.70;3.20;;;;;;;12.20;74.69;99503.72;5102322;28;20044;-64
2023/06/06 02:08:54;;;;;;;5.35;3.30;;;;;;;12.26;73.74;99502.75;5093396;28;20118;-64
2023/06/06 02:11:23;;;;;;;8.23;3.65;;;;;;;12.13;73.66;99502.28;5098333;28;20036;-64
2023/06/06 02:13:52;;;;;;;7.53;3.30;;;;;;;12.08;76.43;99503.00;5104678;28;20036;-64
2023/06/06 02:16:21;;;;;;;5.60;3.00;;;;;;;11.96;73.16;99508.47;5099396;28;20058;-64
2023/06/06 02:18:48;;;;;;;4.78;3.10;;;;;;;12.34;70.54;99501.53;5098552;28;20040;-64
2023/06/06 02:21:16;;;;;;;6.20;3.60;;;;;;;12.41;74.33;99504.03;5098670;28;20042;-64
2023/06/06 02:23:43;;;;;;;6.70;3.42;;;;;;;12.18;73.41;99503.19;5091006;28;20042;-65
2023/06/06 02:26:11;;;;;;;5.70;3.17;;;;;;;11.84;76.90;99508.53;5097681;28;20040;-62
2023/06/06 02:28:43;;;;;;;7.00;3.13;;;;;;;11.84;76.93;99505.84;5099468;28;20043;-62
2023/06/06 02:31:14;;;;;;;7.65;3.17;;;;;;;11.62;77.75;99499.56;5097547;28;20135;-65
2023/06/06 02:33:41;;;;;;;5.20;3.05;;;;;;;11.89;77.60;99504.34;5097697;28;20044;-65
2023/06/06 02:36:10;;;;;;;7.25;3.45;;;;;;;12.13;74.47;99500.44;5105358;28;20039;-65
2023/06/06 02:38:39;;;;;;;8.23;3.63;;;;;;;12.62;71.70;99502.44;5093542;28;20063;-64
2023/06/06 02:41:08;;;;;;;5.73;3.30;;;;;;;12.74;72.87;99495.88;5104447;28;20423;-63
2023/06/06 02:43:39;;;;;;;6.00;3.40;;;;;;;12.71;72.07;99491.00;5094770;28;20368;-65
2023/06/06 02:46:09;;;;;;;6.80;3.22;;;;;;;12.33;73.75;99499.06;5093806;28;20043;-63
2023/06/06 02:48:38;;;;;;;10.13;3.42;;;;;;;11.90;76.83;99497.91;5103631;28;20064;-65
2023/06/06 02:51:06;;;;;;;7.03;3.45;;;;;;;12.39;75.98;99500.78;5098551;28;20056;-65
2023/06/06 02:53:34;;;;;;;8.23;3.50;;;;;;;12.10;75.13;99500.88;5101906;28;20044;-65
2023/06/06 02:56:02;;;;;;;5.80;3.33;;;;;;;11.89;76.81;99499.78;5105665;28;20444;-65
2023/06/06 02:58:29;;;;;;;6.25;3.13;;;;;;;11.85;77.87;99496.72;5093334;28;20114;-64
2023/06/06 03:00:57;;;;;;;7.38;3.85;;;;;;;11.59;78.95;99498.19;5098317;28;20508;-64
2023/06/06 03:03:25;;;;;;;9.57;3.55;;;;;;;11.76;79.17;99500.88;5100401;28;20044;-64
2023/06/06 03:05:54;;;;;;;10.02;3.67;;;;;;;12.04;77.43;99502.69;5096147;28;20052;-65
2023/06/06 03:08:22;;;;;;;6.55;3.50;;;;;;;12.11;78.27;99501.72;5091946;28;20482;-64
2023/06/06 03:10:50;;;;;;;7.22;3.53;;;;;;;12.02;77.22;99509.38;5096950;28;20032;-62
2023/06/06 03:13:18;;;;;;;6.68;3.28;;;;;;;12.43;76.20;99504.59;5099277;28;20105;-64
2023/06/06 03:15:46;;;;;;;10.88;3.72;;;;;;;12.56;74.59;99508.81;5091488;28;20123;-63
2023/06/06 03:18:17;;;;;;;9.48;3.67;;;;;;;12.52;74.92;99503.09;5098509;28;20052;-63
2023/06/06 03:20:46;;;;;;;5.40;3.78;;;;;;;12.06;77.05;99511.31;5097290;28;20127;-63
2023/06/06 03:23:17;;;;;;;11.38;3.40;;;;;;;11.74;77.80;99513.72;5101870;28;20044;-64
2023/06/06 03:25:44;;;;;;;6.85;3.30;;;;;;;11.53;79.15;99517.94;5104011;28;20127;-63
2023/06/06 03:28:14;;;;;;;5.78;3.47;;;;;;;11.50;80.91;99517.59;5105658;28;20043;-63
2023/06/06 03:30:42;;;;;;;6.15;3.80;;;;;;;12.07;78.00;99517.50;5103420;28;20101;-63
2023/06/06 03:33:10;;;;;;;9.55;3.83;;;;;;;12.23;77.50;99522.06;5103291;28;20039;-63
2023/06/06 03:35:38;;;;;;;6.32;3.40;;;;;;;12.22;77.30;99515.06;5105541;28;20512;-63
2023/06/06 03:38:06;;;;;;;8.65;3.70;;;;;;;12.37;76.84;99527.09;5097171;28;20048;-63
2023/06/06 03:40:35;;;;;;;9.20;3.80;;;;;;;12.42;76.22;99519.91;5101898;28;20073;-62
2023/06/06 03:43:03;;;;;;;7.85;4.30;;;;;;;12.98;74.55;99527.06;5105127;28;20151;-64
2023/06/06 03:45:32;;;;;;;8.32;3.70;;;;;;;13.49;73.54;99525.81;5103186;28;20047;-63
2023/06/06 03:48:00;;;;;;;6.82;3.53;;;;;;;13.59;71.51;99525.09;5105188;28;20032;-64
2023/06/06 03:50:27;;;;;;;6.82;3.10;;;;;;;13.36;73.03;99518.94;5095942;28;20050;-62
2023/06/06 03:52:55;;;;;;;5.88;3.55;;;;;;;13.71;71.30;99525.75;5100995;28;20139;-64
2023/06/06 03:55:23;;;;;;;7.32;3.67;;;;;;;14.01;71.18;99522.50;5103884;28;20135;-62
2023/06/06 03:57:53;;;;;;;8.38;3.90;;;;;;;14.69;67.44;99521.06;5103470;28;20039;-64
2023/06/06 04:00:21;;;;;;;10.00;4.15;;;;;;;15.02;66.15;99520.66;5106066;28;20036;-64
2023/06/06 04:02:49;;;;;;;5.78;3.75;;;;;;;14.78;66.74;99520.31;5100501;28;20166;-63
2023/06/06 04:05:16;;;;;;;11.60;4.30;;;;;;;14.77;67.04;99523.25;5102051;28;20055;-63
2023/06/06 04:07:44;;;;;;;7.60;3.80;;;;;;;14.34;68.10;99523.25;5105464;28;20052;-63
2023/06/06 04:10:12;;;;;;;9.13;4.25;;;;;;;15.61;64.68;99530.25;5098967;28;20058;-63
2023/06/06 04:12:39;;;;;;;8.02;3.83;;;;;;;16.23;61.86;99530.31;5100907;28;20130;-62
2023/06/06 04:15:10;;;;;;;6.25;3.50;;;;;;;15.97;63.10;99524.91;5097125;27;20480;-64
2023/06/06 04:17:38;;;;;;;;;;;;;;;16.03;62.38;99534.66;5096776;28;20149;-62
2023/06/06 04:20:08;;;;;;;6.72;4.07;;;;;;;16.17;61.99;99538.44;5099483;28;20022;-64
2023/06/06 04:22:36;;;;;;;8.90;4.10;;;;;;;16.43;60.70;99538.41;5084108;28;20043;-64
2023/06/06 04:25:03;;;;;;;7.18;3.72;;;;;;;16.18;61.50;99534.63;5103271;28;20052;-63
2023/06/06 04:27:31;;;;;;;12.38;4.20;;;;;;;15.70;63.31;99522.47;5095105;28;20126;-63
2023/06/06 04:29:59;;;;;;;10.90;4.45;;;;;;;15.56;63.88;99524.84;5096757;28;20143;-64
2023/06/06 04:32:29;;;;;;;14.00;4.97;;;;;;;14.97;66.72;99526.03;5102405;28;20048;-63
2023/06/06 04:34:58;;;;;;;7.55;3.97;;;;;;;14.67;68.62;99527.50;5098365;28;20489;-64
2023/06/06 04:37:32;;;;;;;13.30;4.47;;;;;;;14.83;68.08;99539.22;5101678;28;20140;-64
2023/06/06 04:40:00;;;;;;;8.70;3.65;;;;;;;14.77;68.03;99532.16;5105622;28;20040;-64
2023/06/06 04:42:32;;;;;;;16.15;4.75;;;;;;;14.56;68.88;99541.22;5093931;28;20064;-63
2023/06/06 04:45:02;;;;;;;14.00;3.97;;;;;;;14.63;69.13;99531.03;5103701;28;20044;-64
2023/06/06 04:47:32;;;;;;;12.00;4.32;;;;;;;15.22;67.66;99530.72;5098873;28;20482;-64
2023/06/06 04:50:00;;;;;;;11.15;4.00;;;;;;;15.84;64.86;99538.97;5091501;28;20042;-64
2023/06/06 04:52:28;;;;;;;14.57;4.00;;;;;;;17.45;58.82;99546.16;5101249;28;20118;-64
2023/06/06 04:54:56;;;;;;;12.10;4.70;;;;;;;19.22;52.01;99539.66;5102201;28;20186;-64
2023/06/06 04:57:23;;;;;;;21.50;5.22;;;;;;;19.59;50.85;99552.44;5102136;28;20524;-64
2023/06/06 04:59:52;;;;;;;15.13;4.00;;;;;;;19.77;50.13;99542.72;5078974;28;20130;-64
2023/06/06 05:02:21;;;;;;;16.48;4.50;;;;;;;20.12;49.34;99551.38;5104909;28;20047;-63
2023/06/06 05:04:52;;;;;;;19.88;5.07;;;;;;;19.64;49.84;99544.22;5101079;28;20081;-64
2023/06/06 05:07:23;;;;;;;20.27;5.25;;;;;;;18.05;54.45;99550.66;5100805;28;20493;-64
2023/06/06 05:09:51;;;;;;;14.95;5.15;;;;;;;18.29;54.20;99548.78;5102665;28;20059;-63
2023/06/06 05:12:18;;;;;;;16.05;5.22;;;;;;;19.02;52.81;99555.13;5093324;28;20051;-63
2023/06/06 05:14:46;;;;;;;15.18;4.78;;;;;;;19.28;52.15;99557.53;5102872;28;20044;-63
2023/06/06 05:17:15;;;;;;;16.75;4.57;;;;;;;19.89;50.12;99561.28;5098493;28;20047;-63
2023/06/06 05:19:42;;;;;;;14.52;5.18;;;;;;;19.29;50.74;99564.56;5099270;28;20095;-63
2023/06/06 05:22:11;;;;;;;21.75;4.93;;;;;;;19.37;50.97;99566.66;5099923;28;20130;-63
2023/06/06 05:24:39;;;;;;;19.58;4.70;;;;;;;18.93;52.00;99567.72;5099512;28;20040;-63
2023/06/06 05:27:06;;;;;;;16.65;4.75;;;;;;;20.42;49.86;99569.94;5104409;28;20540;-63
2023/06/06 05:29:34;;;;;;;14.50;5.07;;;;;;;21.09;47.99;99565.97;5100051;28;20040;-63
2023/06/06 05:32:01;;;;;;;22.38;5.00;;;;;;;21.07;47.91;99568.19;5103388;28;20054;-63
2023/06/06 05:34:29;;;;;;;16.00;4.40;;;;;;;20.60;47.60;99571.00;5095360;28;20040;-63
2023/06/06 05:36:56;;;;;;;17.55;4.45;;;;;;;21.20;47.61;99570.09;5099717;28;20081;-63
2023/06/06 05:39:25;;;;;;;21.48;5.60;;;;;;;21.03;47.71;99572.63;5099136;28;20071;-63
2023/06/06 05:41:54;;;;;;;23.33;5.28;;;;;;;21.37;47.31;99571.38;5101546;28;20128;-63
2023/06/06 05:44:22;;;;;;;;;;;;;;;21.69;46.67;99573.97;5107307;28;20041;-63
2023/06/06 05:46:54;;;;;;;23.75;4.95;;;;;;;21.29;46.64;99575.63;5098442;28;20023;-63
2023/06/06 05:49:23;;;;;;;14.65;5.07;;;;;;;22.75;44.79;99566.16;5096774;28;20051;-64
2023/06/06 05:51:51;;;;;;;18.88;4.80;;;;;;;23.03;43.80;99577.69;5103598;28;20054;-63
2023/06/06 05:54:18;;;;;;;16.52;4.80;;;;;;;22.15;45.42;99578.31;5094415;28;20070;-63
2023/06/06 05:56:47;;;;;;;16.92;4.85;;;;;;;22.76;44.84;99584.16;5094634;28;20414;-63
2023/06/06 05:59:15;;;;;;;18.83;5.20;;;;;;;24.16;42.15;99574.25;5100382;28;20043;-64
2023/06/06 06:01:45;;;;;;;20.05;5.32;;;;;;;23.62;42.78;99582.00;5101227;28;20040;-63
2023/06/06 06:04:13;;;;;;;20.15;5.20;;;;;;;23.36;43.16;99580.03;5097725;28;20032;-63
2023/06/06 06:06:40;;;;;;;13.07;4.97;;;;;;;23.42;43.51;99576.03;5101750;28;20039;-63
2023/06/06 06:09:08;;;;;;;19.63;5.75;;;;;;;23.71;42.78;99585.53;5100689;28;20433;-63
2023/06/06 06:11:36;;;;;;;27.90;5.63;;;;;;;24.54;41.71;99579.88;5098472;28;20047;-63
2023/06/06 06:14:04;;;;;;;29.30;6.15;;;;;;;24.00;43.11;99578.66;5097438;28;20075;-63
2023/06/06 06:16:32;;;;;;;24.65;5.80;;;;;;;24.11;43.06;99577.16;5099713;28;20050;-63
2023/06/06 06:18:59;;;;;;;26.70;5.72;;;;;;;23.35;44.45;99577.63;5103656;28;20048;-63
2023/06/06 06:21:27;;;;;;;35.30;5.85;;;;;;;23.75;43.77;99575.59;5094314;28;20414;-63
2023/06/06 06:23:54;;;;;;;22.77;5.50;;;;;;;25.09;41.67;99575.44;5097690;28;20038;-63
2023/06/06 06:26:22;;;;;;;22.63;5.95;;;;;;;25.70;39.96;99580.53;5091994;28;20044;-63
2023/06/06 06:28:53;;;;;;;25.88;6.38;;;;;;;23.63;42.78;99578.13;5093812;28;20047;-62
2023/06/06 06:31:22;;;;;;;21.75;5.72;;;;;;;24.82;41.72;99578.66;5096666;28;20062;-62
2023/06/06 06:33:50;;;;;;;21.75;5.53;;;;;;;25.85;40.14;99586.56;5104116;28;20051;-62
2023/06/06 06:36:18;;;;;;;11.10;5.22;;;;;;;26.46;39.44;99579.38;5103138;28;20070;-63
2023/06/06 06:38:48;;;;;;;20.80;5.57;;;;;;;25.54;40.06;99588.59;5097845;28;20039;-63
2023/06/06 06:41:15;;;;;;;21.17;5.82;;;;;;;25.22;40.67;99592.03;5096816;28;20068;-62
2023/06/06 06:43:43;;;;;;;17.85;5.32;;;;;;;25.92;40.12;99587.66;5101941;28;20044;-62
2023/06/06 06:46:16;;;;;;;18.75;5.53;;;;;;;25.47;40.73;99593.00;5098542;28;20390;-63
2023/06/06 06:48:45;;;;;;;19.98;5.75;;;;;;;25.18;41.25;99592.66;5091398;28;20040;-63
2023/06/06 06:51:14;;;;;;;21.92;6.63;;;;;;;25.80;40.54;99591.13;5096741;28;20043;-62
2023/06/06 06:53:41;;;;;;;30.83;7.13;;;;;;;26.04;38.92;99590.47;5104105;28;20043;-63
2023/06/06 06:56:09;;;;;;;19.25;6.38;;;;;;;26.75;38.85;99590.56;5096483;28;20050;-63
2023/06/06 06:58:37;;;;;;;20.45;6.03;;;;;;;26.76;38.50;99587.50;5098706;28;20025;-62
2023/06/06 07:01:05;;;;;;;30.42;6.32;;;;;;;26.27;39.88;99590.09;5101814;28;20465;-62
2023/06/06 07:03:34;;;;;;;21.55;5.53;;;;;;;27.78;37.05;99590.25;5106641;28;20047;-62
2023/06/06 07:06:05;;;;;;;29.17;6.82;;;;;;;27.65;37.53;99584.00;5096886;28;20135;-63
2023/06/06 07:08:32;;;;;;;22.13;6.25;;;;;;;27.52;37.50;99587.94;5095204;28;20044;-63
2023/06/06 07:11:00;;;;;;;19.70;5.40;;;;;;;26.97;37.83;99587.38;5099896;28;20096;-63
2023/06/06 07:13:27;;;;;;;24.40;5.70;;;;;;;27.39;37.67;99578.91;5107191;28;20044;-63
2023/06/06 07:15:54;;;;;;;21.52;5.40;;;;;;;27.02;37.43;99589.09;5102260;28;20131;-62
2023/06/06 07:18:23;;;;;;;17.17;5.10;;;;;;;27.74;36.70;99589.38;5099548;28;20058;-62
2023/06/06 07:20:52;;;;;;;26.70;7.13;;;;;;;26.90;38.18;99589.91;5103801;28;20112;-63
2023/06/06 07:23:21;;;;;;;23.88;5.50;;;;;;;27.04;37.10;99590.34;5095730;28;20040;-63
2023/06/06 07:25:48;;;;;;;;;;;;;;;28.64;34.13;99589.13;5096596;28;20040;-62
2023/06/06 07:28:16;;;;;;;28.55;5.93;;;;;;;27.65;36.68;99588.69;5093755;28;19951;-63
2023/06/06 07:30:44;;;;;;;30.15;5.80;;;;;;;25.95;39.72;99586.19;5100664;28;20615;-63
2023/06/06 07:33:11;;;;;;;20.00;5.07;;;;;;;24.64;40.70;99586.94;5095329;28;20051;-61
2023/06/06 07:35:38;;;;;;;20.63;5.43;;;;;;;22.10;45.90;99583.91;5097322;28;20048;-62
2023/06/06 07:38:06;;;;;;;26.20;5.93;;;;;;;24.77;41.81;99592.53;5101959;28;20429;-63
2023/06/06 07:40:35;;;;;;;22.02;5.05;;;;;;;27.78;36.62;99583.97;5100114;28;20129;-63
2023/06/06 07:43:02;;;;;;;;;;;;;;;27.98;36.04;99574.72;5102241;28;20086;-62
2023/06/06 07:45:30;;;;;;;24.65;5.22;;;;;;;26.63;38.11;99577.59;5102623;28;19920;-63
2023/06/06 07:47:58;;;;;;;28.27;5.25;;;;;;;27.36;36.18;99571.34;5099983;28;20054;-63
2023/06/06 07:50:26;;;;;;;18.33;4.75;;;;;;;28.34;34.34;99572.97;5101263;28;20048;-62
2023/06/06 07:52:53;;;;;;;31.85;5.50;;;;;;;27.82;36.49;99573.88;5099288;28;20091;-63
2023/06/06 07:55:20;;;;;;;23.88;4.88;;;;;;;28.72;33.65;99568.84;5096308;28;20044;-63
2023/06/06 07:57:50;;;;;;;21.77;5.30;;;;;;;27.89;35.43;99574.88;5106939;28;20048;-63
2023/06/06 08:00:18;;;;;;;27.63;4.97;;;;;;;28.79;34.37;99569.03;5104133;28;20067;-63
2023/06/06 08:02:45;;;;;;;37.72;5.38;;;;;;;28.02;36.00;99570.13;5101130;28;20123;-63
2023/06/06 08:05:13;;;;;;;27.38;5.50;;;;;;;28.62;35.36;99572.94;5098595;28;20064;-63
2023/06/06 08:07:44;;;;;;;26.25;5.05;;;;;;;28.94;35.08;99564.66;5098813;28;20402;-63
2023/06/06 08:10:12;;;;;;;36.78;6.32;;;;;;;28.37;35.59;99575.81;5108149;28;20076;-62
2023/06/06 08:12:39;;;;;;;44.08;5.40;;;;;;;29.37;34.55;99573.94;5098374;28;20082;-63
2023/06/06 08:15:10;;;;;;;27.65;4.80;;;;;;;29.39;34.32;99574.38;5095670;28;20501;-63
2023/06/06 08:17:38;;;;;;;31.73;5.00;;;;;;;29.20;35.04;99572.38;5098283;28;20032;-62
2023/06/06 08:20:08;;;;;;;23.75;4.63;;;;;;;28.30;35.31;99574.81;5105171;28;20043;-62
2023/06/06 08:22:37;;;;;;;17.75;4.22;;;;;;;28.70;35.04;99569.19;5099056;28;20029;-62
2023/06/06 08:25:06;;;;;;;16.67;5.00;;;;;;;28.91;34.85;99560.66;5096708;28;20052;-62
2023/06/06 08:27:34;;;;;;;22.05;5.18;;;;;;;28.95;34.29;99571.75;5099052;28;20065;-62
2023/06/06 08:30:01;;;;;;;35.88;5.28;;;;;;;26.32;37.31;99576.16;5092734;28;20043;-62
2023/06/06 08:32:32;;;;;;;25.17;5.60;;;;;;;28.27;35.51;99570.81;5092580;28;20057;-63
2023/06/06 08:34:59;;;;;;;25.13;5.70;;;;;;;26.28;38.33;99577.94;5095428;28;20246;-62
2023/06/06 08:37:27;;;;;;;22.40;4.82;;;;;;;26.73;37.91;99566.16;5105634;28;20054;-62
2023/06/06 08:39:55;;;;;;;19.85;4.85;;;;;;;27.19;36.86;99566.88;5096951;28;20128;-62
2023/06/06 08:42:22;;;;;;;19.15;4.50;;;;;;;26.72;38.96;99569.28;5099070;28;20393;-62
2023/06/06 08:44:50;;;;;;;29.00;4.95;;;;;;;27.66;36.83;99563.59;5100616;28;20516;-62
2023/06/06 08:47:18;;;;;;;20.15;5.00;;;;;;;27.05;37.31;99560.91;5105977;28;20043;-62
2023/06/06 08:49:47;;;;;;;15.63;4.68;;;;;;;25.17;40.13;99566.38;5097938;28;20033;-62
2023/06/06 08:52:14;;;;;;;9.23;3.75;;;;;;;27.67;36.84;99565.19;5101544;28;20075;-62
2023/06/06 08:54:42;;;;;;;9.80;4.38;;;;;;;28.80;34.53;99554.84;5098457;28;20187;-62
2023/06/06 08:57:11;;;;;;;14.82;4.60;;;;;;;27.69;36.25;99557.38;5097284;27;20204;-62
2023/06/06 08:59:40;;;;;;;15.53;4.20;;;;;;;26.48;38.16;99559.78;5102749;28;20086;-62
2023/06/06 09:02:07;;;;;;;13.80;4.25;;;;;;;27.78;34.99;99564.69;5098703;28;20304;-63
2023/06/06 09:04:35;;;;;;;17.88;4.00;;;;;;;27.97;35.38;99556.59;5096032;28;20039;-63
2023/06/06 09:07:08;;;;;;;12.90;4.20;;;;;;;28.75;33.72;99551.56;5102090;28;20054;-63
2023/06/06 09:09:37;;;;;;;17.23;4.68;;;;;;;28.93;33.70;99558.34;5100336;28;20050;-63
2023/06/06 09:12:06;;;;;;;14.25;4.45;;;;;;;29.84;33.25;99553.66;5101020;28;20104;-63
2023/06/06 09:14:34;;;;;;;12.52;4.38;;;;;;;28.45;35.00;99553.97;5093960;28;20092;-63
2023/06/06 09:17:01;;;;;;;11.45;3.88;;;;;;;26.64;34.77;99563.53;5095934;28;20036;-63
2023/06/06 09:19:29;;;;;;;16.52;4.68;;;;;;;26.34;36.78;99554.63;5100082;28;20051;-63
2023/06/06 09:21:58;;;;;;;15.00;4.38;;;;;;;26.52;36.56;99568.97;5096262;28;20043;-63
2023/06/06 09:24:27;;;;;;;18.15;5.05;;;;;;;24.45;39.51;99565.38;5098164;28;20131;-63
2023/06/06 09:26:55;;;;;;;9.65;4.38;;;;;;;25.65;37.02;99561.53;5096472;28;20043;-63
2023/06/06 09:29:23;;;;;;;16.77;4.38;;;;;;;26.94;35.43;99554.28;5096645;28;20040;-63
2023/06/06 09:31:50;;;;;;;15.02;4.65;;;;;;;27.31;33.43;99552.31;5105455;28;20047;-63
2023/06/06 09:34:26;;;;;;;10.13;3.83;;;;;;;27.29;33.78;99555.41;5098069;28;20079;-63
2023/06/06 09:36:55;;;;;;;5.30;3.38;;;;;;;27.48;34.05;99556.75;5098925;28;20046;-63
2023/06/06 09:39:22;;;;;;;13.98;4.50;;;;;;;26.10;35.55;99560.84;5096743;28;20122;-63
2023/06/06 09:41:51;;;;;;;18.00;5.00;;;;;;;25.28;36.15;99557.78;5105208;28;20040;-62
2023/06/06 09:44:22;;;;;;;11.40;3.75;;;;;;;27.31;34.44;99555.88;5101084;28;20490;-62
2023/06/06 09:46:50;;;;;;;14.20;4.43;;;;;;;27.98;33.52;99546.38;5094791;28;20056;-62
2023/06/06 09:49:20;;;;;;;10.02;4.28;;;;;;;26.17;37.03;99554.81;5098634;28;20055;-62
2023/06/06 09:51:48;;;;;;;9.00;3.92;;;;;;;27.36;34.62;99546.56;5101717;28;20039;-62
2023/06/06 09:54:16;;;;;;;8.00;3.90;;;;;;;26.47;35.44;99548.00;5101709;28;20043;-62
2023/06/06 09:56:44;;;;;;;19.27;4.03;;;;;;;26.07;34.93;99538.75;5099657;28;20042;-62
2023/06/06 09:59:13;;;;;;;15.50;4.07;;;;;;;27.20;33.83;99535.47;5098339;28;20044;-62
2023/06/06 10:01:42;;;;;;;10.82;3.70;;;;;;;27.69;33.64;99546.38;5099169;28;20482;-62
2023/06/06 10:04:10;;;;;;;8.82;3.75;;;;;;;28.01;32.67;99538.25;5103807;28;20051;-62
2023/06/06 10:06:39;;;;;;;6.93;3.45;;;;;;;27.49;31.97;99536.34;5097329;28;20043;-62
2023/06/06 10:09:06;;;;;;;10.52;3.47;;;;;;;26.47;33.16;99537.00;5098388;28;20382;-62
2023/06/06 10:11:34;;;;;;;8.20;3.40;;;;;;;26.56;33.29;99538.88;5106572;28;20035;-62
2023/06/06 10:14:03;;;;;;;6.25;3.30;;;;;;;26.72;34.80;99539.81;5098236;28;20600;-62
2023/06/06 10:16:32;;;;;;;8.07;3.38;;;;;;;25.49;34.47;99533.91;5103201;28;20035;-62
2023/06/06 10:18:59;;;;;;;;;;;;;;;26.34;33.71;99529.09;5122718;27;20153;-62
2023/06/06 10:21:27;;;;;;;5.82;3.05;;;;;;;25.79;32.98;99536.56;5093829;28;19931;-61
2023/06/06 10:23:54;;;;;;;6.22;3.50;;;;;;;27.47;32.39;99530.38;5097521;28;20693;-62
2023/06/06 10:26:25;;;;;;;5.82;3.42;;;;;;;27.01;33.06;99538.78;5098695;28;20034;-62
2023/06/06 10:28:59;;;;;;;9.27;3.13;;;;;;;26.79;31.28;99525.50;5107364;28;20044;-63
2023/06/06 10:31:32;;;;;;;6.47;3.10;;;;;;;26.81;31.52;99532.28;5103341;28;20566;-63
2023/06/06 10:34:01;;;;;;;7.05;3.65;;;;;;;27.27;32.21;99527.44;5097380;28;20074;-63
2023/06/06 10:36:40;;;;;;;9.55;3.28;;;;;;;26.68;32.02;99525.97;5095488;28;20159;-62
2023/06/06 10:39:21;;;;;;;5.90;3.40;;;;;;;27.02;32.65;99515.63;5102357;28;20052;-63
2023/06/06 10:41:52;;;;;;;5.93;3.20;;;;;;;27.26;32.23;99523.09;5095409;28;20036;-62
2023/06/06 10:44:21;;;;;;;6.93;3.92;;;;;;;25.79;34.22;99529.13;5091616;28;20541;-63
2023/06/06 10:46:51;;;;;;;7.72;3.90;;;;;;;25.69;34.95;99517.78;5097654;28;20035;-63
2023/06/06 10:49:20;;;;;;;9.43;3.88;;;;;;;25.90;35.12;99521.31;5100114;28;20047;-62
2023/06/06 10:51:47;;;;;;;7.32;4.00;;;;;;;26.78;34.88;99513.69;5091827;28;20060;-62
2023/06/06 10:54:18;;;;;;;11.70;4.00;;;;;;;27.75;33.59;99511.91;5098634;28;20054;-62
2023/06/06 10:56:52;;;;;;;8.73;3.80;;;;;;;25.16;35.28;99512.69;5095390;28;20127;-62
2023/06/06 10:59:27;;;;;;;8.85;3.20;;;;;;;25.65;34.87;99505.84;5097750;28;20059;-62
2023/06/06 11:01:56;;;;;;;6.80;3.60;;;;;;;26.69;34.30;99507.53;5100937;28;20050;-62
2023/06/06 11:04:24;;;;;;;13.05;3.72;;;;;;;26.43;35.00;99505.88;5100428;28;20119;-62
2023/06/06 11:06:52;;;;;;;8.40;4.18;;;;;;;25.22;36.17;99509.75;5090192;28;20101;-63
2023/06/06 11:09:23;;;;;;;11.55;3.83;;;;;;;25.96;36.54;99499.91;5100270;28;20479;-62
2023/06/06 11:11:51;;;;;;;11.20;3.80;;;;;;;25.86;34.88;99506.66;5104066;28;20051;-62
2023/06/06 11:14:25;;;;;;;6.90;3.83;;;;;;;25.99;34.86;99505.56;5093110;28;20059;-62
2023/06/06 11:17:01;;;;;;;12.73;4.30;;;;;;;25.22;35.54;99505.06;5102844;28;20089;-62
2023/06/06 11:19:38;;;;;;;7.35;3.55;;;;;;;26.27;34.42;99493.16;5102158;28;20131;-62
2023/06/06 11:22:06;;;;;;;8.85;3.70;;;;;;;27.02;33.71;99490.09;5099624;28;20040;-62
2023/06/06 11:24:37;;;;;;;10.25;3.80;;;;;;;26.53;35.05;99488.16;5099200;28;20144;-62
2023/06/06 11:27:06;;;;;;;12.05;3.75;;;;;;;26.19;35.06;99487.41;5103133;28;20047;-62
2023/06/06 11:29:34;;;;;;;7.05;3.60;;;;;;;26.19;33.79;99498.41;5097531;28;20075;-62
2023/06/06 11:32:05;;;;;;;5.88;3.60;;;;;;;26.11;34.18;99484.75;5091300;28;20132;-62
2023/06/06 11:34:35;;;;;;;7.72;3.53;;;;;;;25.91;31.85;99487.22;5100452;28;20510;-62
2023/06/06 11:37:04;;;;;;;10.20;4.03;;;;;;;26.17;31.50;99489.69;5096838;28;20047;-62